CYSM

Fort Smith Airport

Airport
ICAO code
CYSM
Summary
ICAO Region
NAM
ICAO Territory
Location

Fort Smith, Northwest Territories,

Coordinates
60° 1' 10" N , 111° 57' 30" W
KCC
Airport BS
Non Avian Wildlife Hazards to Aircraft
Airport CFIT
Altimeter Temperature Error Correction
Airport GND
Aircraft Ground De/Anti Icing
Metar
CYSM 040700Z 36005KT 5SM -SN OVC040 M23/M27 A3029 RMK SC8 SLP289

Description

Regional airport serving the town of Fort Smith, Northwest Territories, Canada.

Climatology

Subarctic climate (Köppen climate classification Dfc) - long, usually very cold winters, and short, cool to mild summers.

Runways

Designator Length Width Surface Rops
2/20 549 30 COM No/No
11/29 1829 61 ASP No/No

Airport map

Aerial View

SKYbrary Partners:

Safety knowledge contributed by: